Time;durP1;ratioP1;P1;durP2;ratioP2;P2;SDS_P1;SDS_P2;PMS_P1;PMS_P2;Temp;Humidity;BMP_temperature;BMP_pressure;BME280_temperature;BME280_humidity;BME280_pressure;Samples;Min_cycle;Max_cycle;Signal;HPM_P1;HPM_P2
2022/03/02 00:00:54;;;;;;;13.43;9.27;;;;;;;0.04;100.00;101250.38;4991395;28;20101;-80
2022/03/02 00:03:20;;;;;;;16.17;9.70;;;;;;;0.14;100.00;101244.47;4990958;28;20129;-84
2022/03/02 00:05:46;;;;;;;15.50;10.10;;;;;;;0.27;100.00;101251.56;4991443;28;20046;-80
2022/03/02 00:08:11;;;;;;;15.57;10.93;;;;;;;0.27;100.00;101231.25;4990957;28;20129;-80
2022/03/02 00:10:37;;;;;;;16.53;10.73;;;;;;;0.10;100.00;101207.75;4991200;28;20037;-83
2022/03/02 00:13:02;;;;;;;16.67;11.40;;;;;;;0.21;100.00;101231.56;4991323;28;20440;-81
2022/03/02 00:15:28;;;;;;;14.37;10.40;;;;;;;0.28;100.00;101241.53;4991242;28;20037;-83
2022/03/02 00:17:53;;;;;;;17.47;11.00;;;;;;;-0.08;100.00;101166.34;4973786;28;20453;-82
2022/03/02 00:20:19;;;;;;;15.13;10.03;;;;;;;0.50;100.00;101237.50;4990436;28;20027;-81
2022/03/02 00:22:45;;;;;;;14.53;10.43;;;;;;;0.43;100.00;101221.69;4991354;28;20105;-76
2022/03/02 00:25:11;;;;;;;15.60;9.83;;;;;;;0.38;100.00;101230.56;4991126;28;20427;-78
2022/03/02 00:27:37;;;;;;;17.50;10.90;;;;;;;0.31;100.00;101225.69;4990866;28;20035;-79
2022/03/02 00:30:05;;;;;;;14.27;10.10;;;;;;;0.07;100.00;101191.34;4991238;28;20031;-77
2022/03/02 00:32:31;;;;;;;15.40;10.73;;;;;;;0.11;100.00;101218.78;4990978;28;20085;-78
2022/03/02 00:34:57;;;;;;;15.67;9.77;;;;;;;0.00;100.00;101225.47;4991155;28;20018;-77
2022/03/02 00:37:22;;;;;;;16.93;10.17;;;;;;;0.13;100.00;101220.72;4989500;28;20018;-75
2022/03/02 00:39:48;;;;;;;14.47;9.37;;;;;;;0.24;100.00;101218.28;4991091;28;20109;-79
2022/03/02 00:42:13;;;;;;;14.83;9.00;;;;;;;0.27;100.00;101211.81;4991359;28;20453;-79
2022/03/02 00:44:39;;;;;;;13.57;9.23;;;;;;;0.02;100.00;101165.53;4991002;28;20030;-77
2022/03/02 00:47:05;;;;;;;12.40;9.30;;;;;;;0.29;100.00;101197.59;4994134;28;20052;-75
2022/03/02 00:49:33;;;;;;;18.20;10.00;;;;;;;0.40;100.00;101192.59;4994687;28;20124;-77
2022/03/02 00:51:59;;;;;;;14.77;9.27;;;;;;;0.08;100.00;101186.41;4994574;28;20026;-75
2022/03/02 00:54:24;;;;;;;12.70;8.70;;;;;;;0.07;100.00;101194.78;4994309;28;20449;-77
2022/03/02 00:56:50;;;;;;;13.20;9.37;;;;;;;-0.14;100.00;101159.84;4994168;28;20019;-78
2022/03/02 00:59:16;;;;;;;15.83;9.47;;;;;;;-0.13;100.00;101179.41;4994095;28;20026;-79
2022/03/02 01:01:41;;;;;;;15.57;10.07;;;;;;;-0.26;100.00;101167.22;4992999;28;20014;-76
2022/03/02 01:04:07;;;;;;;17.57;9.57;;;;;;;-0.54;100.00;101129.19;4994140;28;20065;-76
2022/03/02 01:06:33;;;;;;;23.33;10.80;;;;;;;-0.27;100.00;101168.88;4994135;28;20026;-79
2022/03/02 01:08:59;;;;;;;51.40;17.57;;;;;;;-0.36;100.00;101160.44;4993824;28;20026;-77
2022/03/02 01:11:24;;;;;;;39.83;14.53;;;;;;;-0.44;100.00;101163.91;4994324;28;20030;-78
2022/03/02 01:13:50;;;;;;;24.80;12.80;;;;;;;-0.58;100.00;101166.03;4994042;28;20035;-77
2022/03/02 01:16:16;;;;;;;16.77;10.90;;;;;;;-0.62;100.00;101163.06;4993674;28;20030;-74
2022/03/02 01:18:42;;;;;;;16.43;10.73;;;;;;;-0.54;100.00;101152.88;4993564;28;20102;-75
2022/03/02 01:21:09;;;;;;;16.33;10.43;;;;;;;-0.55;100.00;101143.53;4992676;28;20476;-77
2022/03/02 01:23:34;;;;;;;15.53;10.23;;;;;;;-0.61;100.00;101117.59;4992325;28;20051;-79
2022/03/02 01:26:00;;;;;;;14.23;9.00;;;;;;;-0.33;100.00;101143.81;4993503;28;20037;-77
2022/03/02 01:28:26;;;;;;;16.40;9.60;;;;;;;-0.27;100.00;101147.69;4993784;28;20104;-77
2022/03/02 01:30:52;;;;;;;16.50;10.40;;;;;;;-0.11;100.00;101148.31;4993496;28;20457;-78
2022/03/02 01:33:17;;;;;;;17.83;10.80;;;;;;;-0.33;100.00;101088.00;4993696;28;20022;-78
2022/03/02 01:35:43;;;;;;;18.10;11.03;;;;;;;0.04;100.00;101138.66;4993490;28;20062;-78
2022/03/02 01:38:09;;;;;;;19.00;11.27;;;;;;;0.20;100.00;101153.63;4993629;28;20081;-78
2022/03/02 01:40:35;;;;;;;16.97;10.80;;;;;;;0.25;100.00;101146.41;4993596;28;20053;-76
2022/03/02 01:43:00;;;;;;;16.77;10.30;;;;;;;0.27;100.00;101140.69;4992981;28;20457;-77
2022/03/02 01:45:26;;;;;;;16.47;10.80;;;;;;;0.14;100.00;101107.38;4993568;28;20045;-76
2022/03/02 01:47:52;;;;;;;20.13;11.00;;;;;;;0.04;100.00;101105.66;4993440;28;20038;-78
2022/03/02 01:50:18;;;;;;;17.93;11.30;;;;;;;0.13;100.00;101136.06;4993348;28;20037;-77
2022/03/02 01:52:44;;;;;;;21.73;12.40;;;;;;;0.10;100.00;101140.84;4993218;28;20030;-77
2022/03/02 01:55:12;;;;;;;22.80;12.80;;;;;;;0.06;100.00;101126.97;4993142;28;20023;-79
2022/03/02 01:57:39;;;;;;;30.67;15.00;;;;;;;0.02;100.00;101122.38;4992513;28;20037;-76
2022/03/02 02:00:08;;;;;;;25.10;13.70;;;;;;;0.03;100.00;101124.19;4993396;28;20088;-77
2022/03/02 02:02:33;;;;;;;26.80;13.83;;;;;;;0.10;100.00;101123.97;4993109;28;20076;-75
2022/03/02 02:04:59;;;;;;;24.20;13.60;;;;;;;-0.01;100.00;101095.09;4992605;28;20062;-80
2022/03/02 02:07:26;;;;;;;22.90;12.27;;;;;;;0.19;100.00;101120.47;4992963;28;20022;-80
2022/03/02 02:09:52;;;;;;;21.47;13.00;;;;;;;-0.20;100.00;101064.66;4992921;28;20037;-79
2022/03/02 02:12:18;;;;;;;33.47;15.27;;;;;;;-0.29;100.00;101060.38;4993297;28;20026;-77
2022/03/02 02:14:44;;;;;;;36.13;16.73;;;;;;;-0.04;100.00;101116.75;4993024;28;20433;-77
2022/03/02 02:17:09;;;;;;;24.73;13.10;;;;;;;-0.10;100.00;101113.66;4993042;28;20065;-77
2022/03/02 02:19:35;;;;;;;16.57;11.17;;;;;;;-0.22;100.00;101106.75;4992447;28;20054;-76
2022/03/02 02:22:01;;;;;;;16.60;10.80;;;;;;;-0.26;100.00;101109.75;4992439;28;20370;-76
2022/03/02 02:24:26;;;;;;;28.77;12.73;;;;;;;-0.57;100.00;101032.53;4992788;28;20081;-78
2022/03/02 02:26:52;;;;;;;22.87;12.73;;;;;;;-0.22;100.00;101078.81;4992535;28;20033;-78
2022/03/02 02:29:20;;;;;;;23.50;12.33;;;;;;;-0.03;100.00;101094.03;4991390;28;20026;-80
2022/03/02 02:31:46;;;;;;;22.40;12.27;;;;;;;-0.18;100.00;101045.34;4991155;28;20109;-77
2022/03/02 02:34:12;;;;;;;21.70;12.47;;;;;;;0.17;100.00;101087.31;4990700;28;20141;-77
2022/03/02 02:36:38;;;;;;;17.13;10.77;;;;;;;-0.07;100.00;101086.91;4992141;28;20025;-77
2022/03/02 02:39:04;;;;;;;19.97;12.20;;;;;;;-0.03;100.00;101088.97;4992463;28;20029;-78
2022/03/02 02:41:29;;;;;;;19.70;12.07;;;;;;;-0.06;100.00;101054.84;4991057;28;20026;-78
2022/03/02 02:43:55;;;;;;;18.70;11.67;;;;;;;0.07;100.00;101074.56;4992566;28;20022;-77
2022/03/02 02:46:20;;;;;;;16.17;11.10;;;;;;;0.12;100.00;101064.06;4991865;28;20097;-76
2022/03/02 02:48:46;;;;;;;18.90;11.77;;;;;;;0.04;100.00;101059.97;4991821;28;20022;-76
2022/03/02 02:51:11;;;;;;;18.33;11.00;;;;;;;0.11;100.00;101067.38;4991723;28;20030;-77
2022/03/02 02:53:37;;;;;;;17.43;11.43;;;;;;;0.12;100.00;101061.50;4992097;28;20030;-77
2022/03/02 02:56:03;;;;;;;17.20;11.23;;;;;;;0.08;100.00;101062.00;4990816;28;20026;-78
2022/03/02 02:58:29;;;;;;;18.40;10.30;;;;;;;-0.06;100.00;101042.16;4991407;28;20043;-78
2022/03/02 03:00:54;;;;;;;15.77;10.17;;;;;;;0.03;100.00;101053.09;4990522;28;20026;-78
2022/03/02 03:03:20;;;;;;;17.70;10.33;;;;;;;0.07;100.00;101055.13;4991672;28;20225;-82
2022/03/02 03:05:46;;;;;;;16.07;9.63;;;;;;;0.04;100.00;101047.28;4991178;28;20054;-80
2022/03/02 03:08:13;;;;;;;15.37;10.27;;;;;;;0.15;100.00;101064.34;4990590;28;20033;-80
2022/03/02 03:10:41;;;;;;;16.40;9.57;;;;;;;-0.02;100.00;101040.00;4990615;28;20076;-78
2022/03/02 03:13:07;;;;;;;16.43;8.57;;;;;;;-0.05;100.00;101041.38;4990957;28;20032;-81
2022/03/02 03:15:34;;;;;;;14.47;9.33;;;;;;;-0.01;100.00;101057.00;4990560;28;20080;-85
2022/03/02 03:18:01;;;;;;;16.07;9.33;;;;;;;0.00;100.00;101063.00;4990955;28;20030;-83
2022/03/02 03:20:27;;;;;;;15.77;10.73;;;;;;;-0.03;100.00;101067.78;4989469;28;20128;-82
2022/03/02 03:22:54;;;;;;;30.07;21.30;;;;;;;-0.10;100.00;101050.22;4989200;28;20446;-81
2022/03/02 03:25:20;;;;;;;17.47;11.97;;;;;;;-0.24;100.00;101010.94;4989074;28;20077;-81
2022/03/02 03:27:46;;;;;;;18.63;12.03;;;;;;;-0.22;100.00;101006.91;4989398;28;20461;-83
2022/03/02 03:30:14;;;;;;;15.17;10.40;;;;;;;0.08;100.00;101059.47;4989543;28;20014;-81
2022/03/02 03:32:40;;;;;;;15.07;9.20;;;;;;;-0.10;100.00;101053.66;4988732;28;20396;-81
2022/03/02 03:35:07;;;;;;;16.67;9.53;;;;;;;-0.30;100.00;101034.09;4972309;28;20022;-81
2022/03/02 03:37:33;;;;;;;18.17;12.63;;;;;;;-0.45;100.00;101037.81;4988875;28;20035;-80
2022/03/02 03:40:00;;;;;;;18.53;13.80;;;;;;;-0.66;100.00;101051.22;4990507;28;20085;-80
2022/03/02 03:42:25;;;;;;;14.63;11.30;;;;;;;-0.87;100.00;101044.22;4948417;29;20045;-80
2022/03/02 03:44:51;;;;;;;15.33;10.27;;;;;;;-0.73;100.00;101048.00;4947943;29;20114;-79
2022/03/02 03:47:17;;;;;;;18.50;12.37;;;;;;;-0.90;100.00;101011.84;4949246;29;20438;-78
2022/03/02 03:49:43;;;;;;;19.13;11.10;;;;;;;-0.59;100.00;101056.88;4948063;29;20062;-79
2022/03/02 03:52:09;;;;;;;16.47;10.43;;;;;;;-0.85;100.00;101018.25;4932407;29;20498;-81
2022/03/02 03:54:35;;;;;;;17.80;11.17;;;;;;;-0.73;100.00;101063.22;4948041;29;20045;-80
2022/03/02 03:57:01;;;;;;;21.40;13.63;;;;;;;-1.03;100.00;101067.25;4948174;29;20070;-79
2022/03/02 03:59:26;;;;;;;17.30;12.17;;;;;;;-1.29;100.00;101062.28;4932394;29;20027;-79
2022/03/02 04:01:51;;;;;;;16.73;11.67;;;;;;;-1.20;100.00;101083.41;4949631;29;20063;-81
2022/03/02 04:04:17;;;;;;;15.07;10.23;;;;;;;-1.33;100.00;101066.16;4947870;29;20059;-78
2022/03/02 04:06:42;;;;;;;17.43;10.90;;;;;;;-1.49;100.00;101062.16;4947641;29;20045;-79
2022/03/02 04:09:08;;;;;;;20.40;12.23;;;;;;;-1.54;100.00;101063.38;4948540;29;20035;-80
2022/03/02 04:11:33;;;;;;;17.93;11.70;;;;;;;-1.52;100.00;101071.13;4947322;29;20042;-81
2022/03/02 04:13:59;;;;;;;19.80;11.27;;;;;;;-1.65;100.00;101066.53;4948555;29;20089;-79
2022/03/02 04:16:24;;;;;;;20.63;12.57;;;;;;;-1.90;100.00;101013.56;4949042;29;20031;-79
2022/03/02 04:18:50;;;;;;;24.10;15.00;;;;;;;-1.53;100.00;101062.63;4949579;29;20047;-80
2022/03/02 04:21:16;;;;;;;23.57;15.73;;;;;;;-1.50;100.00;101057.84;4949924;28;20062;-81
2022/03/02 04:23:42;;;;;;;22.63;13.63;;;;;;;-1.50;100.00;101060.38;4953436;29;20034;-83
2022/03/02 04:26:08;;;;;;;23.60;14.80;;;;;;;-1.53;100.00;101057.56;4953660;28;20045;-79
2022/03/02 04:28:33;;;;;;;25.57;16.17;;;;;;;-1.40;100.00;101072.28;5013887;28;20380;-79
2022/03/02 04:30:59;;;;;;;26.67;16.97;;;;;;;-1.50;100.00;101050.25;5013927;28;20049;-81
2022/03/02 04:33:24;;;;;;;27.57;16.93;;;;;;;-1.64;100.00;101048.06;4996137;28;20112;-81
2022/03/02 04:35:50;;;;;;;25.40;16.47;;;;;;;-1.68;100.00;101053.59;4995635;28;20161;-79
2022/03/02 04:38:15;;;;;;;25.47;16.50;;;;;;;-1.65;100.00;101041.22;4995807;28;20530;-80
2022/03/02 04:40:41;;;;;;;19.63;14.03;;;;;;;-1.78;100.00;101016.41;5013612;28;20026;-80
2022/03/02 04:43:07;;;;;;;21.17;13.57;;;;;;;-2.03;100.00;100954.94;4994703;28;20037;-80
2022/03/02 04:45:32;;;;;;;24.87;15.03;;;;;;;-1.47;100.00;101047.09;4976732;28;20030;-80
2022/03/02 04:47:59;;;;;;;26.17;18.13;;;;;;;-1.43;100.00;101048.28;4994289;28;20384;-79
2022/03/02 04:50:26;;;;;;;17.70;12.33;;;;;;;-1.47;100.00;101037.91;4995922;28;20678;-82
2022/03/02 04:52:53;;;;;;;19.33;13.03;;;;;;;-1.47;100.00;101040.44;5003858;28;20059;-84
2022/03/02 04:55:19;;;;;;;15.87;11.67;;;;;;;-1.49;100.00;101031.78;4994853;28;20113;-83
2022/03/02 04:57:48;;;;;;;39.03;23.63;;;;;;;-1.35;100.00;101048.25;5011583;28;20113;-80
2022/03/02 05:00:26;;;;;;;29.97;18.57;;;;;;;-1.31;100.00;101046.91;4964295;28;20716;-81
2022/03/02 05:02:52;;;;;;;69.77;35.13;;;;;;;-1.23;100.00;101040.06;5003544;28;20030;-81
2022/03/02 05:05:21;;;;;;;25.13;17.23;;;;;;;-1.43;100.00;101006.16;5010347;28;20046;-80
2022/03/02 05:07:48;;;;;;;24.67;18.73;;;;;;;-1.45;100.00;101010.16;4970703;28;20042;-82
2022/03/02 05:10:16;;;;;;;23.23;15.83;;;;;;;-1.55;100.00;100993.22;4972149;28;20050;-81
2022/03/02 05:12:41;;;;;;;32.07;20.97;;;;;;;-1.64;100.00;101005.91;4972272;28;20039;-79
2022/03/02 05:15:08;;;;;;;23.40;14.70;;;;;;;-1.43;100.00;101035.63;4971990;28;20026;-82
2022/03/02 05:17:35;;;;;;;20.20;13.20;;;;;;;-1.54;100.00;101020.34;4973907;28;20051;-82
2022/03/02 05:20:01;;;;;;;37.20;25.73;;;;;;;-1.58;100.00;101041.06;4971854;28;20401;-81
2022/03/02 05:22:26;;;;;;;27.13;18.80;;;;;;;-1.68;100.00;101035.88;4969927;28;20053;-82
2022/03/02 05:24:52;;;;;;;24.80;13.60;;;;;;;-1.66;100.00;101049.56;4971617;28;20034;-79
2022/03/02 05:27:17;;;;;;;25.50;14.73;;;;;;;-1.82;100.00;101049.72;4971853;28;20489;-81
2022/03/02 05:29:43;;;;;;;19.80;12.83;;;;;;;-2.12;100.00;101044.41;4971311;28;20034;-79
2022/03/02 05:32:09;;;;;;;28.13;21.27;;;;;;;-2.26;100.00;101042.16;4970282;28;20509;-81
2022/03/02 05:34:35;;;;;;;19.20;12.77;;;;;;;-2.14;100.00;101062.72;4971870;28;20486;-80
2022/03/02 05:37:00;;;;;;;21.90;14.37;;;;;;;-2.20;100.00;101029.25;4955484;28;20042;-81
2022/03/02 05:39:26;;;;;;;19.47;11.27;;;;;;;-2.16;100.00;101047.38;4970561;28;20038;-80
2022/03/02 05:41:52;;;;;;;18.33;11.77;;;;;;;-2.29;100.00;101052.88;4975928;28;20033;-82
2022/03/02 05:44:18;;;;;;;17.63;11.57;;;;;;;-2.38;100.00;101058.69;4951912;29;20039;-82
2022/03/02 05:46:44;;;;;;;22.63;13.83;;;;;;;-2.66;100.00;101015.53;4952044;29;20048;-82
2022/03/02 05:49:10;;;;;;;18.13;11.67;;;;;;;-2.29;100.00;101069.72;4951562;29;20562;-82
2022/03/02 05:51:38;;;;;;;37.67;21.17;;;;;;;-2.28;100.00;101053.75;4951956;29;20023;-82
2022/03/02 05:54:05;;;;;;;28.73;15.27;;;;;;;-2.14;100.00;101061.06;4951610;29;20102;-81
2022/03/02 05:56:32;;;;;;;22.73;13.40;;;;;;;-2.05;100.00;101073.72;4952052;29;20179;-82
2022/03/02 05:58:58;;;;;;;27.83;16.17;;;;;;;-2.09;100.00;101066.59;4951766;29;20046;-83
2022/03/02 06:01:25;;;;;;;28.07;16.53;;;;;;;-2.03;100.00;101074.78;4951933;29;20379;-82
2022/03/02 06:03:51;;;;;;;21.83;13.13;;;;;;;-1.96;100.00;101073.72;4935256;28;20043;-83
2022/03/02 06:06:16;;;;;;;27.30;15.50;;;;;;;-2.05;100.00;101055.13;4935677;29;20497;-84
2022/03/02 06:08:42;;;;;;;19.90;12.33;;;;;;;-1.91;100.00;101081.75;4935211;29;20031;-83
2022/03/02 06:11:09;;;;;;;22.10;14.57;;;;;;;-1.91;100.00;101066.56;4951745;29;20035;-81
2022/03/02 06:13:35;;;;;;;18.10;11.93;;;;;;;-1.98;100.00;101060.91;4935491;29;20045;-82
2022/03/02 06:16:02;;;;;;;23.30;14.97;;;;;;;-1.93;100.00;101063.00;4964368;28;20038;-82
2022/03/02 06:18:28;;;;;;;23.37;13.60;;;;;;;-1.90;100.00;101065.84;4975063;28;20400;-83
2022/03/02 06:21:00;;;;;;;20.53;14.37;;;;;;;-1.59;100.00;101073.84;4975232;28;20030;-82
2022/03/02 06:23:26;;;;;;;22.27;13.47;;;;;;;-1.63;100.00;101060.00;4991491;28;20045;-81
2022/03/02 06:25:51;;;;;;;20.70;12.70;;;;;;;-1.60;100.00;101069.50;4992906;28;20018;-81
2022/03/02 06:28:17;;;;;;;22.47;13.43;;;;;;;-1.65;100.00;101058.94;4993276;28;20033;-81
2022/03/02 06:30:42;;;;;;;19.70;13.97;;;;;;;-1.51;100.00;101077.97;4993097;28;20030;-79
2022/03/02 06:33:09;;;;;;;19.83;12.20;;;;;;;-1.61;100.00;101052.53;4992796;28;20134;-83
2022/03/02 06:35:34;;;;;;;19.87;12.90;;;;;;;-1.55;100.00;101060.72;4992714;28;20022;-81
2022/03/02 06:38:00;;;;;;;17.57;12.83;;;;;;;-1.58;100.00;101056.25;4974964;28;20092;-79
2022/03/02 06:40:25;;;;;;;20.07;13.27;;;;;;;-1.52;100.00;101056.84;4974893;28;20069;-78
2022/03/02 06:43:06;;;;;;;20.07;12.67;;;;;;;-1.55;100.00;101054.00;4990797;28;20664;-81
2022/03/02 06:45:50;;;;;;;19.60;13.07;;;;;;;-1.42;100.00;101072.88;4992565;28;20065;-80
2022/03/02 06:48:30;;;;;;;19.50;13.13;;;;;;;-1.51;100.00;101045.97;4992623;28;20023;-81
2022/03/02 06:51:00;;;;;;;21.30;13.43;;;;;;;-1.27;100.00;101073.44;4992035;28;20042;-81
2022/03/02 06:53:35;;;;;;;17.77;12.73;;;;;;;-1.32;100.00;101063.78;4974749;28;20109;-81
2022/03/02 06:56:04;;;;;;;26.03;16.30;;;;;;;-1.17;100.00;101083.69;4974650;28;20026;-81
2022/03/02 06:58:35;;;;;;;20.95;13.10;;;;;;;-1.12;100.00;101072.34;4974605;28;20113;-83
2022/03/02 07:01:01;;;;;;;19.53;13.77;;;;;;;-1.26;100.00;101035.56;4991989;28;20052;-81
2022/03/02 07:03:28;;;;;;;20.03;12.93;;;;;;;-1.03;100.00;101072.31;4974447;28;20036;-79
2022/03/02 07:05:55;;;;;;;23.60;15.57;;;;;;;-1.04;100.00;101076.47;4992217;28;20046;-79
2022/03/02 07:08:22;;;;;;;21.20;14.40;;;;;;;-1.08;100.00;101055.78;4989264;28;20061;-81
2022/03/02 07:10:51;;;;;;;19.97;13.40;;;;;;;-1.04;100.00;101055.31;4989142;28;20129;-82
2022/03/02 07:13:17;;;;;;;22.77;14.53;;;;;;;-1.27;100.00;101025.31;4989334;28;20034;-82
2022/03/02 07:15:42;;;;;;;25.13;16.00;;;;;;;-0.98;100.00;101071.09;4989559;28;20519;-81
2022/03/02 07:18:08;;;;;;;22.90;15.90;;;;;;;-0.93;100.00;101069.00;4989134;28;20452;-82
2022/03/02 07:20:41;;;;;;;21.77;14.40;;;;;;;-0.90;100.00;101067.59;4973071;28;20503;-82
2022/03/02 07:23:12;;;;;;;21.77;14.37;;;;;;;-1.18;100.00;101016.03;4989047;28;20216;-81
2022/03/02 07:25:40;;;;;;;20.73;14.30;;;;;;;-0.86;100.00;101072.22;4989297;28;20026;-82
2022/03/02 07:28:12;;;;;;;21.33;14.90;;;;;;;-0.95;100.00;101061.22;4989019;28;20497;-82
2022/03/02 07:30:39;;;;;;;21.43;15.17;;;;;;;-0.90;100.00;101065.06;4989197;28;20472;-82
2022/03/02 07:33:07;;;;;;;21.23;14.93;;;;;;;-0.74;100.00;101063.97;4972920;28;20117;-83
2022/03/02 07:35:35;;;;;;;22.40;15.80;;;;;;;-0.73;100.00;101061.56;4973690;28;20046;-84
2022/03/02 07:38:02;;;;;;;22.07;15.10;;;;;;;-0.64;100.00;101048.81;4992693;28;20070;-82
2022/03/02 07:40:27;;;;;;;36.57;22.90;;;;;;;-0.67;100.00;101020.66;4991809;28;20039;-82
2022/03/02 07:42:53;;;;;;;30.93;19.97;;;;;;;-0.64;100.00;101008.25;4991659;28;20022;-83
2022/03/02 07:45:19;;;;;;;30.30;18.63;;;;;;;-0.34;100.00;101042.19;4969414;28;20146;-83
2022/03/02 07:47:47;;;;;;;28.33;19.23;;;;;;;-0.35;100.00;101027.72;4969591;28;20035;-82
2022/03/02 07:50:13;;;;;;;35.83;25.03;;;;;;;-0.35;100.00;101023.56;4969600;28;20035;-83
2022/03/02 07:52:45;;;;;;;31.17;20.37;;;;;;;-0.28;100.00;101030.06;4969478;28;20122;-82
2022/03/02 07:55:12;;;;;;;23.53;15.73;;;;;;;-0.37;100.00;101029.25;4954038;28;20069;-83
2022/03/02 07:57:41;;;;;;;24.23;17.10;;;;;;;-0.41;100.00;101019.56;4973592;28;20039;-82
2022/03/02 08:00:11;;;;;;;;;;;;;;;-0.33;100.00;101028.78;4974105;28;20042;-82
2022/03/02 08:02:40;;;;;;;22.67;15.48;;;;;;;-0.29;100.00;101025.75;4957223;28;19910;-81
2022/03/02 08:05:06;;;;;;;21.02;13.75;;;;;;;-0.44;100.00;100999.03;4973437;28;20482;-82
2022/03/02 08:07:31;;;;;;;23.77;16.90;;;;;;;-0.27;100.00;101018.28;4957194;28;20038;-82
2022/03/02 08:09:58;;;;;;;24.97;16.20;;;;;;;-0.17;100.00;101016.69;4957030;28;20559;-82
2022/03/02 08:12:24;;;;;;;26.23;17.57;;;;;;;-0.15;100.00;101008.31;4957090;28;20026;-81
2022/03/02 08:14:51;;;;;;;26.67;17.20;;;;;;;-0.06;100.00;101006.63;4973389;28;20089;-82
2022/03/02 08:17:19;;;;;;;23.90;15.83;;;;;;;0.03;100.00;101006.53;4977433;28;20041;-81
2022/03/02 08:19:46;;;;;;;24.43;16.17;;;;;;;-0.13;100.00;100981.44;4977290;28;20469;-81
2022/03/02 08:22:18;;;;;;;23.37;16.00;;;;;;;-0.14;100.00;100969.50;4994774;28;20429;-81
2022/03/02 08:24:56;;;;;;;23.73;15.87;;;;;;;0.15;100.00;101002.53;4995181;28;20023;-82
2022/03/02 08:27:22;;;;;;;23.43;15.80;;;;;;;0.30;100.00;100988.59;4977495;28;20019;-82
2022/03/02 08:29:56;;;;;;;25.07;16.87;;;;;;;0.19;100.00;100953.78;4995140;28;20023;-81
2022/03/02 08:32:22;;;;;;;23.27;15.53;;;;;;;0.42;100.00;100977.72;4977413;28;20014;-81
2022/03/02 08:34:49;;;;;;;26.30;17.80;;;;;;;0.57;100.00;100970.50;4977419;28;20081;-81
2022/03/02 08:37:17;;;;;;;23.33;15.27;;;;;;;0.70;100.00;100960.63;4977240;28;20469;-81
2022/03/02 08:39:43;;;;;;;22.17;16.23;;;;;;;0.84;100.00;100949.06;4994737;28;20534;-82
2022/03/02 08:42:09;;;;;;;27.00;17.80;;;;;;;0.99;100.00;100949.47;4977329;28;20084;-81
2022/03/02 08:44:35;;;;;;;27.90;17.60;;;;;;;1.12;100.00;100939.53;4976876;28;20018;-81
2022/03/02 08:47:01;;;;;;;26.43;18.57;;;;;;;1.32;100.00;100932.66;4994673;28;20018;-81
2022/03/02 08:49:26;;;;;;;24.27;17.00;;;;;;;1.45;100.00;100932.00;4977074;28;20026;-80
2022/03/02 08:51:54;;;;;;;29.80;19.23;;;;;;;1.53;100.00;100930.06;4994513;28;20022;-81
2022/03/02 08:54:20;;;;;;;26.60;17.53;;;;;;;1.62;100.00;100935.91;4994616;28;20030;-78
2022/03/02 08:56:47;;;;;;;28.10;18.33;;;;;;;1.60;100.00;100930.66;4976983;28;20092;-80
2022/03/02 08:59:15;;;;;;;26.83;17.17;;;;;;;1.74;100.00;100920.72;4994631;28;20018;-81
2022/03/02 09:01:48;;;;;;;28.73;18.07;;;;;;;1.87;100.00;100922.56;4976962;28;20369;-80
2022/03/02 09:04:16;;;;;;;30.20;19.40;;;;;;;1.78;100.00;100890.53;4994227;28;20085;-79
2022/03/02 09:06:44;;;;;;;25.17;16.00;;;;;;;2.07;100.00;100919.94;4993797;28;20109;-80
2022/03/02 09:09:09;;;;;;;24.07;15.93;;;;;;;2.07;100.00;100884.28;4976822;28;20018;-79
2022/03/02 09:11:35;;;;;;;23.80;15.17;;;;;;;2.21;100.00;100894.66;4994495;28;20157;-79
2022/03/02 09:14:01;;;;;;;21.00;14.83;;;;;;;2.45;100.00;100893.09;4994330;28;20048;-78
2022/03/02 09:16:27;;;;;;;23.93;16.10;;;;;;;2.42;100.00;100852.97;4994599;28;20034;-78
2022/03/02 09:18:53;;;;;;;24.33;16.80;;;;;;;2.43;100.00;100836.03;4993891;28;20535;-79
2022/03/02 09:21:20;;;;;;;21.88;14.65;;;;;;;2.74;99.58;100884.19;4994031;28;20026;-80
2022/03/02 09:23:47;;;;;;;15.85;11.98;;;;;;;2.70;98.62;100860.13;4976077;28;20393;-79
2022/03/02 09:26:15;;;;;;;17.20;12.25;;;;;;;2.71;98.18;100861.03;4993987;28;20122;-80
2022/03/02 09:28:44;;;;;;;15.48;11.32;;;;;;;2.84;96.07;100875.59;4994120;28;20505;-80
2022/03/02 09:31:14;;;;;;;17.40;12.05;;;;;;;2.98;96.40;100872.41;5002805;28;20041;-79
2022/03/02 09:33:39;;;;;;;;;;;;;;;3.20;96.99;100866.31;5013959;28;20034;-79
2022/03/02 09:36:10;;;;;;;15.50;9.97;;;;;;;3.29;94.12;100867.00;5013778;28;19920;-79
2022/03/02 09:38:38;;;;;;;14.23;10.60;;;;;;;3.13;94.18;100844.59;5013581;28;20109;-79
2022/03/02 09:41:06;;;;;;;16.33;10.73;;;;;;;3.19;93.99;100851.78;5013361;28;20034;-80
2022/03/02 09:43:34;;;;;;;16.05;11.43;;;;;;;3.30;94.46;100832.16;4995554;28;20026;-79
2022/03/02 09:46:06;;;;;;;14.75;10.50;;;;;;;3.64;93.54;100834.53;5013002;28;20038;-79
2022/03/02 09:48:33;;;;;;;15.35;10.75;;;;;;;3.85;92.07;100814.72;5012868;28;20034;-78
2022/03/02 09:51:02;;;;;;;14.13;9.40;;;;;;;3.90;91.00;100790.41;4990841;28;20038;-82
2022/03/02 09:53:30;;;;;;;10.38;8.23;;;;;;;4.03;86.77;100815.13;4958216;28;20050;-80
2022/03/02 09:55:59;;;;;;;12.63;7.85;;;;;;;4.20;87.13;100804.38;4969884;28;20053;-84
2022/03/02 09:58:27;;;;;;;11.93;8.20;;;;;;;4.44;85.49;100798.28;4954158;28;20157;-84
2022/03/02 10:00:55;;;;;;;12.25;9.15;;;;;;;4.51;86.10;100774.88;4970260;28;20038;-83
2022/03/02 10:03:20;;;;;;;8.45;6.57;;;;;;;4.75;81.62;100790.97;4954019;28;20426;-84
2022/03/02 10:05:48;;;;;;;9.95;6.93;;;;;;;4.71;82.20;100783.88;4969900;28;20054;-80
2022/03/02 10:08:18;;;;;;;10.35;6.93;;;;;;;4.60;82.90;100778.06;4954494;28;20034;-80
2022/03/02 10:10:46;;;;;;;;;;;;;;;4.91;85.34;100776.59;4954921;28;20208;-79
2022/03/02 10:13:14;;;;;;;8.85;6.43;;;;;;;4.62;82.56;100724.44;4970960;28;19919;-80
2022/03/02 10:15:41;;;;;;;10.07;7.60;;;;;;;4.93;85.69;100773.34;4970007;28;20027;-79
2022/03/02 10:18:11;;;;;;;12.30;8.57;;;;;;;4.71;84.60;100753.19;4969699;28;20125;-79
2022/03/02 10:20:49;;;;;;;9.88;7.40;;;;;;;4.62;85.42;100757.69;4970905;28;20046;-79
2022/03/02 10:23:42;;;;;;;9.80;7.35;;;;;;;4.74;85.07;100755.94;4973521;28;20041;-80
2022/03/02 10:26:19;;;;;;;12.02;8.00;;;;;;;4.81;85.29;100739.28;4971961;28;20026;-77
2022/03/02 10:29:09;;;;;;;12.80;8.57;;;;;;;4.58;86.98;100742.94;4973287;28;20062;-78
2022/03/02 10:31:41;;;;;;;9.75;6.95;;;;;;;4.88;85.21;100744.03;4973142;28;20031;-79
2022/03/02 10:34:30;;;;;;;8.15;6.40;;;;;;;4.80;84.30;100694.94;4971597;28;20085;-78
2022/03/02 10:37:04;;;;;;;;;;;;;;;4.93;81.58;100734.97;4972066;28;20042;-76
2022/03/02 10:40:05;;;;;;;8.25;5.65;;;;;;;4.93;83.25;100732.41;4972509;28;19909;-77
2022/03/02 10:42:51;;;;;;;8.98;6.50;;;;;;;4.60;81.59;100698.78;4972580;28;20022;-77
2022/03/02 10:45:25;;;;;;;8.05;5.20;;;;;;;5.01;81.62;100713.31;4971353;28;20089;-77
2022/03/02 10:47:51;;;;;;;7.93;5.28;;;;;;;5.02;80.37;100715.09;4972586;28;20163;-77
2022/03/02 10:50:17;;;;;;;9.27;6.20;;;;;;;5.29;82.67;100709.06;4973172;28;20027;-77
2022/03/02 10:52:47;;;;;;;7.53;4.70;;;;;;;5.04;77.54;100681.94;4971883;28;20109;-78
2022/03/02 10:55:14;;;;;;;7.03;4.68;;;;;;;5.39;81.33;100690.91;4954702;28;20050;-78
2022/03/02 10:57:40;;;;;;;7.05;4.63;;;;;;;5.53;79.24;100704.53;4971932;28;20023;-78
2022/03/02 11:00:17;;;;;;;7.70;5.25;;;;;;;5.74;79.42;100698.97;4971010;28;20115;-79
2022/03/02 11:02:50;;;;;;;6.45;4.18;;;;;;;5.63;75.87;100691.53;4971348;28;20027;-78
2022/03/02 11:05:18;;;;;;;6.50;4.50;;;;;;;5.65;77.01;100678.81;4972270;28;20054;-79
2022/03/02 11:07:44;;;;;;;14.02;10.60;;;;;;;5.96;73.85;100688.31;4971406;28;20065;-79
2022/03/02 11:10:14;;;;;;;8.90;4.90;;;;;;;6.30;79.86;100691.19;4971328;28;20034;-82